Extreme weather reports worldwide

Low visibility

Station
 
Location
 
Name
 
Wind
Knots
Gust
Knots
Vis
SM
Temp/Dew
C
Baro
inHg
METAR
 
CIT UAII Shymkent, KZ Shymkent Airport 0 0.03 -3/-3 30.32 UAII 261600Z 00000MPS 0050 R10/0200N FZFG VV002 M03/M03 Q1027 NOSIG RMK QBB070 QFE734/0979
ATQ VIAR Amritsar, IN Sri Guru Ram Dass Jee International Airport 0 0.03 9/9 30.03 VIAR 261530Z 00000KT 0050 R34/0150 FG VV/// 09/09 Q1017 NOSIG
NSK UOOO Norilsk, RU Norilsk-Alykel Airport 37 0.06 -18/-20 29.94 UOOO 261600Z 17019MPS 0100 R19/0350N SN BLSN VV015 M18/M20 Q1014 R19/39//35 NOSIG RMK QFE744/0993
MXP LIMC Milan, IT Malpensa International Airport 3 0.06 1/1 30.30 LIMC 261550Z 28003KT 220V320 0100 R35R/0450N R17L/0350N R35L/0400N FG VV001 01/01 Q1026 NOSIG
RHV KRHV San Jose, US Reid-Hillview Airport of Santa Clara County 0 0.06 4/4 30.16 KRHV 261547Z 00000KT 1/16SM FG VV001 04/04 A3016

Station
 
Location
 
Name
 
Wind
Knots
Gust
Knots
Vis
SM
Temp/Dew
C
Baro
inHg
METAR
 
BTK UIBB Bratsk, RU Bratsk Airport 0 0.12 -20/-23 30.35 UIBB 261600Z 00000MPS 0200 0050SE R30/0250N FZFG VV000 M20/M23 Q1028 R30/490340 NOSIG RMK QBB010 MT OBSC QFE728/0970
CUF LIMZ Cuneo, IT Cuneo International Airport 2 0.12 0/0 30.30 LIMZ 261550Z AUTO VRB02KT 0200 0100SW R21/0325N FG VV001 00/00 Q1026
YEK CYEK Arviat, CA Arviat Airport 23 29 0.13 -21/-23 29.33 CYEK 261600Z 36023G29KT 1/8SM +SN BLSN VV009 M21/M23 A2933 RMK BLSN8 SLP936
YCY CYCY Clyde River, CA Clyde River Airport 30 36 0.13 -23/-25 29.61 CYCY 261600Z AUTO 31030G36KT 1/8SM +SN BLSN BKN017 OVC021 M23/M25 A2961 RMK PRESFR SLP034
ZEL CBBC Bella Bella, CA Bella Bella (Campbell Island) Airport 0 0.13 -2/-2 30.29 CBBC 261600Z AUTO 00000KT 1/8SM FZFG VV001 M02/M02 A3029 RMK SLP261
KSLI Los Alamitos, US Los Alamitos Army Air Field 0 0.13 8/8 30.13 KSLI 261558Z 00000KT 1/8SM R22L/1200FT FG VV001 09/09 A3013 RMK AO2A SLP206 T00890089
KQVB 0 0.13 5/5 30.12 KQVB 261558Z AUTO 00000KT 1/8SM FG CLR 06/06 A3012 RMK AO2 SLP299 T00590059 RVRNO $
EUG KEUG Eugene, US Mahlon Sweet Field 4 0.13 0/-1 30.24 KEUG 261554Z 33004KT 1/8SM R16R/2200V4000FT FZFG VV002 M01/M01 A3024 RMK AO2 SLP242 I1001 T10061011
SJC KSJC San Jose, US Norman Y. Mineta San Jose International Airport 0 0.13 5/5 30.15 KSJC 261553Z 00000KT 1/8SM R30L/1600V2000FT FG VV001 06/05 A3015 RMK AO2 SLP210 T00560050
LIMN Cameri (NO), IT Cameri Air Base [MIL] 0.16 0/0 30.30 LIMN 261555Z /////KT 0250 FG VV001 00/00 Q1026
EBLB Bütgenbach, BE Elsenborn Air Base 6 0.19 -2/-2 30.41 EBLB 261555Z AUTO 27006KT 0300 -SN OVC002/// M02/M02 Q1030 RED
KRN ESNQ Kiruna, SE Kiruna Airport 2 0.19 -10/-11 29.32 ESNQ 261550Z AUTO 31002KT 0300 R03/1100N R21/1100N FZFG OVC002/// M10/M11 Q0993
OER ESNO Örnsköldsvik, SE Örnsköldsvik Airport 2 0.19 -7/-7 29.44 ESNO 261550Z AUTO VRB02KT 0300 R12/P2000N R30/P2000D FZFG NCD M07/M07 Q0997
SGE EDGS DE Siegerland Airport 11 0.19 -2/-2 30.35 EDGS 261550Z 29011KT 0300 R31/0375N FZFG VV/// M02/M02 Q1028
GOH BGGH Nuuk, GL Godthaab / Nuuk Airport 22 0.19 -9/-10 29.73 BGGH 261550Z 19022KT 0300 BLSN VCSH BKN004 BKN010 M09/M10 Q1007
ESL URWI Elista, RU Elista Airport 4 0.22 -4/-5 30.09 URWI 261600Z AUTO 16002MPS 0350 // ///001/// M04/M05 Q1019 RMK QBB050
LGB KLGB Long Beach, US Long Beach /Daugherty Field/ Airport 6 0.25 8/8 30.13 KLGB 261607Z 30006KT 1/4SM R30/1400V3500FT FG VV001 09/09 A3013 RMK AO2 T00890089
HWD KHWD Hayward, US Hayward Executive Airport 0 0.25 5/3 30.16 KHWD 261607Z 00000KT M1/4SM FG OVC001 05/04 A3016 RMK AO2 T00500039
ALS KALS Alamosa, US San Luis Valley Regional Bergman Field 3 0.25 -10/-11 30.14 KALS 261603Z AUTO 33003KT 1/4SM FZFG VV002 M11/M11 A3014 RMK AO2 T11061111
KSPB Scappoose, US Scappoose Industrial Airpark 0 0.25 0/-1 30.26 KSPB 261601Z AUTO 00000KT 1/4SM FG VV002 00/M01 A3026 RMK AO2 T00001011
PDX KPDX Portland, US Portland International Airport 4 0.25 -1/-2 30.27 KPDX 261600Z 36004KT 1/4SM R10R/1200V1400FT FZFG VV002 M02/M03 A3027 RMK AO2 TWR VIS 1/2 T10171028
KHRF 4 0.25 -8/-8 30.19 KHRF 261600Z AUTO 36004KT M1/4SM FZFG OVC002 M08/M08 A3019 RMK AO2 Hamilton
YXN CYXN Whale Cove, CA Whale Cove Airport 22 28 0.25 -25/-28 29.37 CYXN 261600Z 36022G28KT 1/4SM BLSN BKN020 M25/M28 A2937 RMK SC6 SLP949
YQQ CYQQ Comox, CA Comox Airport 0 0.25 0/0 30.33 CYQQ 261600Z 00000KT 1/4SM R12/2200V3000FT/U FZFG VV001 M00/M00 A3033 RMK FG8 SLP272
YAZ CYAZ Tofino, CA Tofino / Long Beach Airport 5 0.25 0/0 30.26 CYAZ 261600Z 01005KT 1/4SM FG VV001 00/00 A3026 RMK FG8 SLP249
BLI KBLI Bellingham, US Bellingham International Airport 4 0.25 0/0 30.29 KBLI 261557Z 02004KT 1/4SM R16/1400V1600FT FZFG VV002 M01/M01 A3029 RMK AO2 T10061006
WRG PAWG Wrangell, US Wrangell Airport 6 0.25 0/0 30.34 PAWG 261556Z 08006KT 1/4SM FG BKN000 OVC003 00/00 A3034 RMK AO2 UPB03E14 SLP273 P0000 T00000000
PSG PAPG Petersburg, US Petersburg James A Johnson Airport 0 0.25 0/0 30.33 PAPG 261556Z 00000KT 1/4SM FZFG OVC003 M01/M01 A3033 RMK AO2 SLP274 T10061006
KTCY Tracy, US Tracy Municipal Airport 4 0.25 3/3 30.16 KTCY 261555Z AUTO 33004KT M1/4SM FG OVC002 03/03 A3016 RMK A01
KS33 5 0.25 -5/-6 30.31 KS33 261555Z AUTO 02005KT M1/4SM FZFG OVC003 M05/M06 A3031 RMK AO2
KPLU Puyallup, US Pierce County-Thun Field 0 0.25 0/0 30.28 KPLU 261555Z AUTO 00000KT M1/4SM FG OVC002 00/00 A3028 RMK AO2
NUQ KNUQ Mountain View, US Moffett Federal Airfield 0 0.25 7/7 30.16 KNUQ 261555Z AUTO 00000KT M1/4SM FG OVC002 07/07 A3016 RMK AO2
KJSY 0.25 -6/-8 30.28 KJSY 261555Z AUTO 1/4SM FZFG OVC003 M07/M08 A3028 RMK AO2 T10661082 TSNO
KHCO Hallock, US Hallock Municipal Airport 0.25 -16/-17 29.54 KHCO 261555Z AUTO 1/4SM FZFG OVC002 M16/M17 A2954 RMK AO2
KFLY 3 0.25 -8/-9 30.00 KFLY 261555Z AUTO 07003KT 1/4SM FZFG OVC002 M08/M09 A3000 RMK AO2 T10851091
KCPW 7 0.25 -13/-13 30.10 KCPW 261555Z AUTO 22007KT M1/4SM SN OVC001 M13/M13 A3010 RMK AO2
KC83 6 0.25 5/5 30.18 KC83 261555Z AUTO 30006KT M1/4SM FG OVC002 05/05 A3018 RMK AO2
K77S 5 0.25 -2/-1 30.23 K77S 261555Z AUTO 34005KT 1/4SM FZFG OVC003 M02/M01 A3023 RMK A01
K3S8 0 0.25 -5/-5 30.26 K3S8 261555Z AUTO 00000KT M1/4SM FZFG OVC001 M05/M05 A3026 RMK AO2
KVUO Vancouver, US Pearson Field 0 0.25 0/-1 30.27 KVUO 261553Z AUTO 00000KT 1/4SM FZFG VV002 M01/M01 A3027 RMK AO2 SLP249 I1001 T10061011
STS KSTS Santa Rosa, US Charles M. Schulz Sonoma County Airport 3 0.25 4/4 30.17 KSTS 261553Z 33003KT 1/4SM FG VV002 04/04 A3017 RMK AO2 SLP211 T00440044
SEA KSEA Seattle, US Seattle Tacoma International Airport 8 0.25 0/0 30.27 KSEA 261553Z 02008KT 1/4SM R16L/1400V3000FT FG VV001 01/01 A3027 RMK AO2 TWR VIS 1/4 SLP261 T00060006
RTN KRTN Raton, US Raton Municipal-Crews Field 0 0.25 -7/-8 30.10 KRTN 261553Z AUTO 00000KT 1/4SM FZFG VV003 M07/M08 A3010 RMK AO2 SLP230 I1001 T10721083
PAE KPAE Everett, US Snohomish County (Paine Field) Airport 5 0.25 1/-2 30.28 KPAE 261553Z 01005KT M1/4SM R16R/0600V0800FT HZ VV001 01/M02 A3028 RMK AO2 SLP258 T00111022 $
MSO KMSO Missoula, US Missoula International Airport 0 0.25 -7/-8 30.22 KMSO 261553Z 00000KT 1/4SM FZFG VV003 M07/M09 A3022 RMK AO2 SLP284 I1000 T10721089